Latest Weather Observations for Hobart

IDT60901

Issued at 11:41 pm EST Monday 26 June 2017 (issued every 10 minutes, with the page automatically refreshed every 10 minutes)

About weather observations | Map of Hobart area stations | Latest observations for Hobart area | Other Formats
Station Details ID: 094029 Name: HOBART (ELLERSLIE ROAD) Lat: -42.89 Lon: 147.33 Height: 50.5 m
Data from the previous 72 hours. | See also: Recent months at Hobart
Date/Time
EST
Temp
°C
App
Temp
°C
Dew
Point
°C
Rel
Hum
%
Delta-T
°C
Wind Press
QNH
hPa
Press
MSL
hPa
Rain since
9am
mm
Dir  Spd
km/h
Gust
km/h
Spd
kts
Gust
kts
26/11:30pm 4.0 0.9 1.4 83 1.0 WNW 7 11 4 6 1023.4 1023.5 0.0
26/11:00pm 5.0 1.5 1.4 77 1.4 NNW 9 13 5 7 1023.3 1023.4 0.0
26/10:30pm 4.8 1.4 1.8 81 1.2 WNW 9 13 5 7 1023.3 1023.4 0.0
26/10:00pm 4.4 1.4 2.1 85 0.9 W 7 11 4 6 1023.2 1023.3 0.0
26/09:30pm 4.7 1.7 1.9 82 1.1 WNW 7 9 4 5 1022.9 1023.0 0.0
26/09:00pm 5.2 2.2 1.9 79 1.3 W 7 11 4 6 1022.8 1022.9 0.0
26/08:30pm 5.0 1.7 2.5 84 1.0 WSW 9 11 5 6 1022.7 1022.8 0.0
26/08:00pm 5.4 2.5 2.4 81 1.2 WNW 7 11 4 6 1022.6 1022.7 0.0
26/07:30pm 5.7 2.4 2.5 80 1.3 NW 9 13 5 7 1022.2 1022.3 0.0
26/07:00pm 6.1 2.4 2.4 77 1.5 W 11 15 6 8 1021.9 1022.0 0.0
26/06:30pm 6.8 3.2 2.7 75 1.7 WSW 11 15 6 8 1021.6 1021.7 0.0
26/06:00pm 7.2 3.9 2.6 72 1.9 W 9 11 5 6 1021.4 1021.5 0.0
26/05:30pm 7.5 4.6 2.7 71 2.0 W 7 9 4 5 1021.0 1021.1 0.0
26/05:00pm 9.2 5.5 2.3 62 2.9 SSW 11 15 6 8 1020.6 1020.7 0.0
26/04:30pm 10.0 6.6 1.9 57 3.4 W 9 13 5 7 1020.2 1020.3 0.0
26/04:00pm 10.8 6.6 1.8 54 3.8 NW 13 20 7 11 1019.9 1020.0 0.0
26/03:30pm 10.7 6.9 2.0 55 3.7 W 11 17 6 9 1019.7 1019.8 0.0
26/03:00pm 10.9 8.1 3.4 60 3.3 S 7 13 4 7 1019.8 1019.9 0.0
26/02:30pm 11.5 8.3 3.0 56 3.7 SE 9 11 5 6 1019.7 1019.8 0.0
26/02:00pm 11.4 9.6 3.7 59 3.4 ESE 2 7 1 4 1019.4 1019.5 0.0
26/01:30pm 12.1 7.7 2.7 52 4.1 NNW 15 20 8 11 1019.4 1019.5 0.0
26/01:00pm 11.8 7.1 3.2 55 3.8 NNW 17 22 9 12 1019.1 1019.2 0.0
26/12:30pm 11.6 7.2 2.6 54 3.9 NNW 15 24 8 13 1019.0 1019.1 0.0
26/12:00pm 10.3 5.5 2.6 59 3.3 NNW 17 24 9 13 1019.2 1019.3 0.0
26/11:30am 10.5 6.1 2.8 59 3.3 NW 15 22 8 12 1019.1 1019.2 0.0
26/11:00am 10.5 6.5 2.8 59 3.3 NNW 13 20 7 11 1019.2 1019.3 0.0
26/10:30am 11.1 7.9 3.1 58 3.5 NNW 9 17 5 9 1019.3 1019.4 0.0
26/10:00am 9.3 6.0 2.7 63 2.8 NNE 9 13 5 7 1019.0 1019.1 0.0
26/09:30am 7.6 3.1 2.3 69 2.2 NNW 15 24 8 13 1018.4 1018.5 0.0
26/09:00am 5.8 3.8 2.1 77 1.5 NNW 2 7 1 4 1017.9 1018.0 0.2
26/08:30am 5.0 2.0 1.7 79 1.3 WNW 7 9 4 5 1017.5 1017.6 0.2
26/08:00am 4.8 1.9 1.5 79 1.3 SSE 6 9 3 5 1017.1 1017.2 0.2
26/07:30am 5.2 2.1 1.4 76 1.5 WNW 7 11 4 6 1016.8 1016.9 0.2
26/07:00am 5.4 1.9 1.1 74 1.7 W 9 13 5 7 1016.6 1016.7 0.2
26/06:30am 5.4 2.0 1.6 76 1.5 NW 9 13 5 7 1016.2 1016.3 0.2
26/06:00am 5.8 2.7 1.5 74 1.7 N 7 17 4 9 1015.8 1015.9 0.2
26/05:30am 6.0 2.9 1.5 73 1.8 WNW 7 15 4 8 1015.2 1015.3 0.2
26/05:00am 5.8 1.6 1.5 74 1.7 NW 13 17 7 9 1015.1 1015.2 0.2
26/04:30am 5.7 2.6 1.4 74 1.7 NNW 7 13 4 7 1014.6 1014.7 0.2
26/04:00am 6.4 3.1 2.3 75 1.7 NE 9 13 5 7 1014.0 1014.1 0.2
26/03:30am 7.3 3.0 1.1 65 2.5 WSW 13 22 7 12 1013.7 1013.8 0.2
26/03:00am 6.7 4.1 1.2 68 2.2 W 4 7 2 4 1013.6 1013.7 0.2
26/02:30am 7.9 2.5 1.3 63 2.7 SW 19 28 10 15 1013.2 1013.3 0.2
26/02:00am 7.5 3.6 1.0 63 2.6 NW 11 20 6 11 1012.7 1012.8 0.2
26/01:30am 7.7 2.7 1.6 65 2.5 SW 17 24 9 13 1012.3 1012.4 0.2
26/01:00am 7.7 3.7 0.7 61 2.8 WSW 11 20 6 11 1011.8 1011.9 0.2
26/12:30am 7.2 3.5 2.4 71 2.0 WSW 11 19 6 10 1011.5 1011.6 0.2
26/12:00am 8.1 3.9 1.5 63 2.7 SSW 13 28 7 15 1011.3 1011.4 0.2
 
Date/Time
EST
Temp
°C
App
Temp
°C
Dew
Point
°C
Rel
Hum
%
Delta-T
°C
Wind Press
QNH
hPa
Press
MSL
hPa
Rain since
9am
mm
Dir  Spd
km/h
Gust
km/h
Spd
kts
Gust
kts
25/11:30pm 7.6 3.4 1.8 67 2.4 SW 13 26 7 14 1010.8 1010.9 0.2
25/11:00pm 8.0 5.0 2.0 66 2.5 SSE 7 17 4 9 1010.5 1010.5 0.2
25/10:30pm 8.3 4.9 1.8 63 2.7 WSW 9 13 5 7 1009.9 1010.0 0.2
25/10:00pm 8.2 4.5 2.2 66 2.5 WSW 11 19 6 10 1009.4 1009.5 0.2
25/09:30pm 8.2 4.1 2.5 67 2.4 SSW 13 19 7 10 1009.1 1009.2 0.2
25/09:00pm 8.6 4.9 2.4 65 2.6 SSW 11 28 6 15 1008.6 1008.7 0.2
25/08:30pm 8.6 4.9 2.2 64 2.7 W 11 26 6 14 1008.0 1008.1 0.2
25/08:00pm 8.4 5.5 2.5 66 2.5 SW 7 11 4 6 1007.5 1007.6 0.2
25/07:30pm 8.3 5.7 3.2 70 2.2 NNE 6 9 3 5 1007.1 1007.2 0.2
25/07:00pm 9.0 4.5 2.4 63 2.8 WNW 15 22 8 12 1006.4 1006.5 0.2
25/06:30pm 8.4 5.0 3.8 73 2.0 NW 11 20 6 11 1005.8 1005.9 0.2
25/06:00pm 8.8 4.9 3.2 68 2.4 NNW 13 22 7 12 1005.0 1005.1 0.2
25/05:30pm 9.3 3.9 2.5 62 2.9 NNW 20 39 11 21 1004.5 1004.6 0.2
25/05:00pm 8.9 4.4 4.1 72 2.1 NNW 17 28 9 15 1003.8 1003.9 0.2
25/04:30pm 8.9 5.2 4.6 74 1.9 NW 13 17 7 9 1003.5 1003.6 0.2
25/04:00pm 9.4 4.6 4.7 72 2.1 NNW 19 28 10 15 1002.8 1002.9 0.2
25/03:30pm 9.6 4.7 5.2 74 2.0 NW 20 35 11 19 1002.4 1002.5 0.2
25/03:00pm 9.9 3.3 4.1 67 2.6 NNW 28 41 15 22 1002.1 1002.2 0.0
25/02:30pm 9.8 2.9 4.5 69 2.4 NNW 30 41 16 22 1001.9 1002.0 0.0
25/02:00pm 9.8 3.9 5.7 75 1.9 NNW 26 37 14 20 1001.8 1001.9 0.0
25/01:30pm 11.3 4.3 4.2 61 3.2 NW 30 41 16 22 1001.3 1001.4 0.0
25/01:00pm 11.4 4.7 3.6 58 3.5 NW 28 46 15 25 1001.5 1001.6 0.0
25/12:32pm 12.2 5.4 3.2 54 4.0 NW 28 50 15 27 1001.3 1001.4 0.0
25/12:30pm 12.1 5.7 3.1 54 4.0 NW 26 50 14 27 1001.2 1001.3 0.0
25/12:00pm 11.6 6.1 4.1 60 3.4 NW 22 30 12 16 1001.6 1001.7 0.0
25/11:47am 11.4 4.7 3.8 59 3.4 NW 28 46 15 25 1001.8 1001.9 0.0
25/11:30am 11.8 7.1 3.2 55 3.8 NW 17 32 9 17 1002.1 1002.2 0.0
25/11:02am 10.4 3.5 2.8 59 3.3 NW 28 50 15 27 1002.6 1002.7 0.0
25/11:00am 10.3 3.8 2.9 60 3.2 NW 26 50 14 27 1002.7 1002.8 0.0
25/10:30am 10.1 5.7 2.7 60 3.2 NNW 15 26 8 14 1002.7 1002.8 0.0
25/10:00am 9.5 4.7 2.8 63 2.9 N 17 24 9 13 1002.7 1002.8 0.0
25/09:30am 7.8 1.2 2.3 68 2.3 N 26 35 14 19 1003.0 1003.1 0.0
25/09:00am 6.4 1.5 2.3 75 1.7 NNW 17 26 9 14 1003.7 1003.8 0.0
25/08:30am 5.9 1.8 2.5 79 1.4 NNW 13 20 7 11 1003.8 1003.9 0.0
25/08:00am 5.9 1.4 2.2 77 1.5 NNW 15 19 8 10 1004.4 1004.5 0.0
25/07:30am 6.3 1.8 2.4 76 1.6 NNW 15 19 8 10 1004.7 1004.8 0.0
25/07:00am 6.9 1.6 2.0 71 2.0 NNW 19 24 10 13 1004.9 1005.0 0.0
25/06:30am 7.1 1.8 2.0 70 2.1 NNW 19 24 10 13 1004.8 1004.9 0.0
25/06:00am 7.0 1.8 2.2 71 2.0 NW 19 28 10 15 1004.7 1004.8 0.0
25/05:30am 7.0 1.6 2.2 71 2.0 NNW 20 28 11 15 1004.7 1004.8 0.0
25/05:00am 7.2 3.1 2.1 70 2.1 NNW 13 17 7 9 1004.9 1005.0 0.0
25/04:30am 7.2 1.7 1.8 68 2.2 NNW 20 28 11 15 1005.2 1005.3 0.0
25/04:00am 7.3 1.4 1.7 67 2.3 NNW 22 33 12 18 1005.6 1005.7 0.0
25/03:30am 7.1 1.6 1.7 68 2.2 N 20 28 11 15 1005.9 1006.0 0.0
25/03:00am 7.2 0.5 1.6 67 2.3 NNW 26 35 14 19 1006.4 1006.5 0.0
25/02:30am 7.2 0.1 1.6 67 2.3 NNW 28 41 15 22 1006.5 1006.6 0.0
25/02:00am 7.2 -0.2 1.6 67 2.3 NW 30 43 16 23 1006.9 1007.0 0.0
25/01:30am 7.1 1.2 1.4 67 2.3 NW 22 32 12 17 1007.3 1007.4 0.0
25/01:00am 7.2 -0.2 1.6 67 2.3 NW 30 41 16 22 1007.8 1007.9 0.0
25/12:30am 6.8 0.5 1.6 69 2.1 NW 24 35 13 19 1007.7 1007.8 0.0
25/12:00am 6.7 0.1 1.8 71 2.0 NW 26 33 14 18 1008.1 1008.2 0.0
 
Date/Time
EST
Temp
°C
App
Temp
°C
Dew
Point
°C
Rel
Hum
%
Delta-T
°C
Wind Press
QNH
hPa
Press
MSL
hPa
Rain since
9am
mm
Dir  Spd
km/h
Gust
km/h
Spd
kts
Gust
kts
24/11:30pm 6.7 0.1 1.8 71 2.0 NW 26 35 14 19 1008.1 1008.2 0.0
24/11:00pm 6.9 1.4 1.8 70 2.1 NW 20 28 11 15 1008.6 1008.7 0.0
24/10:30pm 7.2 0.5 1.6 67 2.3 NW 26 39 14 21 1008.8 1008.9 0.0
24/10:00pm 7.4 0.7 1.5 66 2.4 NW 26 39 14 21 1008.9 1009.0 0.0
24/09:30pm 7.4 0.7 1.5 66 2.4 NW 26 41 14 22 1009.2 1009.3 0.0
24/09:00pm 7.5 -0.4 1.3 65 2.5 NW 32 43 17 23 1009.3 1009.4 0.0
24/08:30pm 7.5 1.2 1.3 65 2.5 NW 24 35 13 19 1009.6 1009.7 0.0
24/08:00pm 7.6 0.1 1.5 65 2.5 NNW 30 43 16 23 1009.9 1010.0 0.0
24/07:30pm 7.7 0.2 1.3 64 2.6 NNW 30 43 16 23 1009.9 1010.0 0.0
24/07:00pm 7.7 0.6 1.3 64 2.6 NNW 28 41 15 22 1009.7 1009.8 0.0
24/06:30pm 7.9 1.1 1.0 61 2.8 NW 26 35 14 19 1010.0 1010.1 0.0
24/06:00pm 8.0 2.0 0.8 60 2.9 NW 22 35 12 19 1010.0 1010.1 0.0
24/05:30pm 8.2 1.0 0.5 58 3.1 NNW 28 39 15 21 1009.9 1010.0 0.0
24/05:00pm 8.6 0.9 -0.3 53 3.5 NNW 30 44 16 24 1009.9 1010.0 0.0
24/04:30pm 8.7 1.4 -0.1 54 3.5 NNW 28 41 15 22 1009.8 1009.9 0.0
24/04:00pm 9.2 3.0 -0.4 51 3.8 NNW 22 32 12 17 1009.8 1009.9 0.0
24/03:30pm 9.2 3.0 -0.4 51 3.8 NNW 22 32 12 17 1009.6 1009.7 0.0
24/03:00pm 9.5 3.7 0.1 52 3.8 NNW 20 32 11 17 1009.4 1009.5 0.0
24/02:30pm 10.2 4.1 0.1 49 4.1 NNW 22 35 12 19 1009.3 1009.4 0.0
24/02:00pm 10.0 4.3 0.4 51 3.9 NNW 20 33 11 18 1009.3 1009.4 0.0
24/01:30pm 10.4 5.6 0.1 49 4.2 NW 15 30 8 16 1009.5 1009.6 0.0
24/01:00pm 9.9 5.5 0.3 51 3.9 NW 13 24 7 13 1009.5 1009.6 0.0
24/12:30pm 9.2 3.4 -0.1 52 3.7 NNW 20 35 11 19 1009.6 1009.7 0.0
24/12:00pm 8.7 3.0 0.5 56 3.3 NW 20 30 11 16 1009.9 1010.0 0.0
24/11:30am 8.6 2.4 -0.3 53 3.5 NNW 22 32 12 17 1010.2 1010.3 0.0
24/11:00am 8.1 2.3 0.0 56 3.2 NW 20 32 11 17 1010.5 1010.5 0.0
24/10:30am 8.1 1.5 -0.3 55 3.3 NW 24 32 13 17 1010.6 1010.7 0.0
24/10:00am 7.6 1.0 -0.7 55 3.2 NW 24 33 13 18 1010.6 1010.7 0.0
24/09:30am 7.2 1.5 -0.6 57 3.0 NW 19 30 10 16 1010.4 1010.4 0.0
24/09:00am 6.2 0.6 -0.3 63 2.5 NW 19 30 10 16 1010.1 1010.2 2.2
24/08:30am 5.7 0.4 -0.6 64 2.4 NW 17 28 9 15 1009.7 1009.8 2.2
24/08:00am 5.0 0.2 0.3 71 1.8 NW 15 24 8 13 1009.4 1009.5 2.2
24/07:30am 5.2 -0.1 -0.3 67 2.1 NNW 17 26 9 14 1009.2 1009.3 2.2
24/07:00am 4.2 -0.3 0.0 74 1.6 NW 13 20 7 11 1009.1 1009.2 2.2
24/06:30am 4.3 -0.5 0.1 74 1.6 WNW 15 26 8 14 1008.8 1008.9 2.2
24/06:00am 4.3 0.2 -0.2 72 1.7 NW 11 20 6 11 1008.5 1008.6 2.2
24/05:30am 4.7 -2.7 -0.9 67 2.1 NW 28 39 15 21 1008.0 1008.1 2.2
24/05:00am 4.2 -1.8 -1.2 68 2.0 NW 20 32 11 17 1007.8 1007.9 2.2
24/04:30am 4.2 -2.5 -1.2 68 2.0 NW 24 37 13 20 1007.8 1007.9 2.2
24/04:00am 4.4 -2.4 -1.6 65 2.2 NW 24 35 13 19 1007.5 1007.6 2.2
24/03:30am 4.5 -1.3 -1.8 63 2.3 NNW 19 26 10 14 1007.9 1008.0 2.2
24/03:00am 4.5 -2.6 -1.2 66 2.1 NW 26 35 14 19 1008.1 1008.2 2.2
24/02:30am 3.9 -2.0 -1.0 70 1.8 NW 20 28 11 15 1007.7 1007.8 2.2
24/02:00am 4.0 -1.9 -0.6 72 1.7 NW 20 30 11 16 1007.2 1007.3 2.2
24/01:30am 5.7 -0.1 -4.4 48 3.5 W 17 24 9 13 1007.1 1007.2 2.2
24/01:00am 5.6 -1.0 -3.1 53 3.1 W 22 39 12 21 1006.7 1006.8 2.2
24/12:30am 4.7 -2.4 -0.9 67 2.1 WSW 26 37 14 20 1006.6 1006.7 2.2
24/12:00am 3.8 -2.0 0.1 77 1.4 SW 20 30 11 16 1006.7 1006.8 2.2
 
Date/Time
EST
Temp
°C
App
Temp
°C
Dew
Point
°C
Rel
Hum
%
Delta-T
°C
Wind Press
QNH
hPa
Press
MSL
hPa
Rain since
9am
mm
Dir  Spd
km/h
Gust
km/h
Spd
kts
Gust
kts
23/11:43pm 3.7 -4.8 1.1 83 1.0 WSW 35 61 19 33 1006.8 1006.9 2.2

Latest Capital City Observations: Canberra | Sydney | Melbourne | Brisbane | Adelaide | Perth | Hobart | Darwin

Other Formats:

Comma delimited format used in spreadsheet applications
http://www.bom.gov.au/fwo/IDT60901/IDT60901.94970.axf

JavaScript Object Notation format (JSON) in row-major order
http://www.bom.gov.au/fwo/IDT60901/IDT60901.94970.json